createdAt,value
2022-12-06T00:00:46.111Z,5.18
2022-12-06T00:03:12.909Z,5.55
2022-12-06T00:05:45.948Z,5.78
2022-12-06T00:08:13.176Z,4.95
2022-12-06T00:10:39.855Z,5.05
2022-12-06T00:13:06.534Z,5.30
2022-12-06T00:15:35.597Z,5.55
2022-12-06T00:18:02.723Z,5.60
2022-12-06T00:20:29.422Z,5.50
2022-12-06T00:22:56.542Z,5.50
2022-12-06T00:25:23.228Z,5.50
2022-12-06T00:27:50.359Z,5.60
2022-12-06T00:30:17.194Z,5.65
2022-12-06T00:32:43.896Z,6.07
2022-12-06T00:35:10.635Z,6.10
2022-12-06T00:37:37.440Z,6.55
2022-12-06T00:40:04.393Z,5.80
2022-12-06T00:42:31.088Z,6.07
2022-12-06T00:44:57.805Z,6.25
2022-12-06T00:47:24.515Z,6.57
2022-12-06T00:49:51.353Z,6.18
2022-12-06T00:52:18.051Z,7.25
2022-12-06T00:54:44.757Z,7.38
2022-12-06T00:57:11.449Z,6.65
2022-12-06T00:59:38.186Z,7.28
2022-12-06T01:02:07.365Z,7.25
2022-12-06T01:04:34.198Z,6.80
2022-12-06T01:07:01.004Z,7.47
2022-12-06T01:09:31.009Z,7.35
2022-12-06T01:11:58.432Z,7.95
2022-12-06T01:14:25.275Z,7.95
2022-12-06T01:16:51.968Z,8.43
2022-12-06T01:19:18.665Z,8.20
2022-12-06T01:21:45.319Z,8.65
2022-12-06T01:24:12.026Z,8.00
2022-12-06T01:26:38.761Z,8.18
2022-12-06T01:29:05.706Z,8.13
2022-12-06T01:31:38.091Z,8.43
2022-12-06T01:34:06.766Z,8.32
2022-12-06T01:36:33.383Z,8.35
2022-12-06T01:39:01.697Z,8.73
2022-12-06T01:41:28.365Z,8.68
2022-12-06T01:43:55.741Z,8.82
2022-12-06T01:46:25.383Z,8.60
2022-12-06T01:48:54.920Z,9.00
2022-12-06T01:51:21.981Z,9.45
2022-12-06T01:53:49.121Z,9.23
2022-12-06T01:56:16.035Z,9.32
2022-12-06T01:58:44.928Z,8.75
2022-12-06T02:01:11.789Z,9.23
2022-12-06T02:03:38.871Z,10.05
2022-12-06T02:06:09.188Z,8.98
2022-12-06T02:08:44.515Z,9.18
2022-12-06T02:11:11.144Z,9.77
2022-12-06T02:13:38.500Z,10.70
2022-12-06T02:16:11.286Z,10.00
2022-12-06T02:18:56.470Z,10.88
2022-12-06T02:21:50.929Z,11.73
2022-12-06T02:24:32.550Z,10.68
2022-12-06T02:27:13.964Z,10.40
2022-12-06T02:29:49.755Z,10.60
2022-12-06T02:32:22.880Z,11.20
2022-12-06T02:34:52.681Z,11.77
2022-12-06T02:37:25.427Z,11.05
2022-12-06T02:39:54.749Z,11.85
2022-12-06T02:42:23.428Z,11.45
2022-12-06T02:44:58.474Z,11.90
2022-12-06T02:47:27.288Z,11.15
2022-12-06T02:49:56.034Z,10.70
2022-12-06T02:52:27.265Z,11.02
2022-12-06T02:54:55.735Z,11.63
2022-12-06T02:57:27.489Z,10.88
2022-12-06T02:59:54.343Z,11.05
2022-12-06T03:02:21.802Z,10.63
2022-12-06T03:04:51.265Z,10.63
2022-12-06T03:07:24.155Z,10.73
2022-12-06T03:10:08.827Z,10.73
2022-12-06T03:12:44.370Z,10.35
2022-12-06T03:15:26.339Z,9.93
2022-12-06T03:17:58.312Z,10.73
2022-12-06T03:20:27.443Z,10.18
2022-12-06T03:22:58.790Z,10.68
2022-12-06T03:25:26.426Z,10.77
2022-12-06T03:27:54.710Z,11.63
2022-12-06T03:30:21.492Z,11.02
2022-12-06T03:32:49.598Z,10.98
2022-12-06T03:35:19.628Z,11.60
2022-12-06T03:37:48.079Z,12.68
2022-12-06T03:40:25.877Z,11.65
2022-12-06T03:42:52.903Z,11.65
2022-12-06T03:45:20.863Z,12.35
2022-12-06T03:47:52.935Z,11.80
2022-12-06T03:50:22.513Z,12.18
2022-12-06T03:52:51.082Z,12.82
2022-12-06T03:55:17.867Z,12.27
2022-12-06T03:57:45.030Z,10.98
2022-12-06T04:00:11.909Z,10.68
2022-12-06T04:02:38.707Z,11.40
2022-12-06T04:05:05.557Z,10.57
2022-12-06T04:07:32.416Z,11.07
2022-12-06T04:10:04.665Z,12.25
2022-12-06T04:12:50.721Z,12.23
2022-12-06T04:15:17.938Z,12.10
2022-12-06T04:18:03.269Z,12.63
2022-12-06T04:20:50.098Z,11.65
2022-12-06T04:23:17.601Z,12.18
2022-12-06T04:25:44.264Z,13.57
2022-12-06T04:28:29.522Z,12.85
2022-12-06T04:31:20.148Z,13.18
2022-12-06T04:34:07.489Z,12.98
2022-12-06T04:36:52.494Z,13.70
2022-12-06T04:39:20.916Z,13.80
2022-12-06T04:42:06.743Z,13.85
2022-12-06T04:44:33.408Z,13.27
2022-12-06T04:47:00.535Z,14.35
2022-12-06T04:49:27.533Z,13.70
2022-12-06T04:51:54.896Z,13.93
2022-12-06T04:54:22.043Z,13.68
2022-12-06T04:56:48.670Z,14.43
2022-12-06T04:59:15.339Z,13.95
2022-12-06T05:01:41.959Z,14.38
2022-12-06T05:04:08.743Z,14.63
2022-12-06T05:06:35.415Z,16.48
2022-12-06T05:09:03.265Z,17.15
2022-12-06T05:11:29.914Z,13.65
2022-12-06T05:13:56.667Z,15.15
2022-12-06T05:16:23.325Z,14.27
2022-12-06T05:18:49.980Z,14.43
2022-12-06T05:21:18.174Z,15.13
2022-12-06T05:23:44.857Z,13.85
2022-12-06T05:26:12.980Z,13.30
2022-12-06T05:28:39.661Z,14.13
2022-12-06T05:31:06.581Z,16.95
2022-12-06T05:33:33.257Z,14.38
2022-12-06T05:36:00.497Z,13.20
2022-12-06T05:38:27.138Z,14.38
2022-12-06T05:40:53.739Z,14.15
2022-12-06T05:43:20.376Z,13.80
2022-12-06T05:45:47.227Z,14.18
2022-12-06T05:48:13.908Z,15.07
2022-12-06T05:50:40.536Z,15.63
2022-12-06T05:53:07.184Z,13.98
2022-12-06T05:55:33.908Z,13.40
2022-12-06T05:58:00.658Z,14.18
2022-12-06T06:00:27.334Z,13.63
2022-12-06T06:02:54.159Z,13.65
2022-12-06T06:05:20.929Z,13.10
2022-12-06T06:07:47.655Z,13.52
2022-12-06T06:10:14.814Z,13.80
2022-12-06T06:12:41.515Z,13.20
2022-12-06T06:15:08.456Z,18.60
2022-12-06T06:17:35.310Z,20.23
2022-12-06T06:20:05.700Z,13.20
2022-12-06T06:22:33.950Z,14.55
2022-12-06T06:25:01.150Z,13.25
2022-12-06T06:27:27.934Z,12.93
2022-12-06T06:29:54.721Z,14.15
2022-12-06T06:32:21.409Z,14.57
2022-12-06T06:34:48.070Z,14.10
2022-12-06T06:37:14.731Z,13.05
2022-12-06T06:39:41.361Z,11.85
2022-12-06T06:42:08.094Z,13.20
2022-12-06T06:44:34.753Z,13.00
2022-12-06T06:47:01.391Z,13.30
2022-12-06T06:49:28.040Z,13.65
2022-12-06T06:51:54.675Z,13.95
2022-12-06T06:54:21.744Z,13.63
2022-12-06T06:56:49.667Z,13.25
2022-12-06T06:59:16.311Z,13.32
2022-12-06T07:01:43.306Z,13.18
2022-12-06T07:04:09.945Z,13.27
2022-12-06T07:06:36.598Z,12.63
2022-12-06T07:09:03.526Z,13.48
2022-12-06T07:11:30.179Z,13.40
2022-12-06T07:13:56.907Z,13.88
2022-12-06T07:16:23.662Z,14.27
2022-12-06T07:18:50.559Z,14.45
2022-12-06T07:21:18.016Z,13.85
2022-12-06T07:23:44.623Z,15.60
2022-12-06T07:26:15.072Z,14.45
2022-12-06T07:28:42.848Z,14.13
2022-12-06T07:31:09.576Z,14.25
2022-12-06T07:33:36.731Z,14.70
2022-12-06T07:36:11.863Z,13.20
2022-12-06T07:38:39.433Z,13.68
2022-12-06T07:41:27.290Z,13.13
2022-12-06T07:44:16.009Z,12.85
2022-12-06T07:46:43.049Z,13.32
2022-12-06T07:49:09.896Z,12.63
2022-12-06T07:51:36.756Z,13.50
2022-12-06T07:54:03.794Z,13.60
2022-12-06T07:56:30.390Z,13.70
2022-12-06T07:58:57.047Z,13.02
2022-12-06T08:01:24.078Z,16.52
2022-12-06T08:03:50.835Z,14.93
2022-12-06T08:06:17.638Z,13.50
2022-12-06T08:08:44.255Z,15.05
2022-12-06T08:11:10.845Z,13.73
2022-12-06T08:13:37.555Z,16.15
2022-12-06T08:16:05.077Z,17.05
2022-12-06T08:18:31.899Z,16.25
2022-12-06T08:20:59.250Z,14.93
2022-12-06T08:23:32.225Z,15.95
2022-12-06T08:26:05.163Z,16.88
2022-12-06T08:28:33.272Z,16.45
2022-12-06T08:31:03.230Z,15.77
2022-12-06T08:33:32.437Z,16.67
2022-12-06T08:35:59.126Z,16.58
2022-12-06T08:38:25.776Z,15.93
2022-12-06T08:40:52.539Z,17.90
2022-12-06T08:43:19.201Z,17.67
2022-12-06T08:45:50.280Z,18.13
2022-12-06T08:48:17.155Z,15.10
2022-12-06T08:50:43.902Z,15.07
2022-12-06T08:53:10.639Z,14.10
2022-12-06T08:55:37.326Z,13.18
2022-12-06T08:58:03.980Z,12.90
2022-12-06T09:00:30.609Z,12.82
2022-12-06T09:02:57.203Z,14.35
2022-12-06T09:05:23.850Z,13.65
2022-12-06T09:07:50.550Z,14.38
2022-12-06T09:10:17.257Z,13.80
2022-12-06T09:12:43.805Z,13.73
2022-12-06T09:15:10.691Z,14.52
2022-12-06T09:17:37.383Z,13.60
2022-12-06T09:20:06.279Z,15.32
2022-12-06T09:22:33.277Z,16.23
2022-12-06T09:24:59.919Z,15.48
2022-12-06T09:27:29.827Z,15.65
2022-12-06T09:29:56.549Z,14.32
2022-12-06T09:32:23.652Z,14.52
2022-12-06T09:34:50.255Z,14.55
2022-12-06T09:37:16.989Z,14.93
2022-12-06T09:39:48.749Z,15.43
2022-12-06T09:42:15.422Z,16.85
2022-12-06T09:44:59.678Z,16.00
2022-12-06T09:47:41.567Z,16.08
2022-12-06T09:50:11.030Z,15.20
2022-12-06T09:52:49.994Z,17.42
2022-12-06T09:55:19.668Z,17.17
2022-12-06T09:57:51.776Z,16.60
2022-12-06T10:00:22.850Z,16.40
2022-12-06T10:03:08.400Z,16.73
2022-12-06T10:05:35.083Z,15.48
2022-12-06T10:08:04.680Z,16.17
2022-12-06T10:10:31.383Z,15.95
2022-12-06T10:13:04.439Z,16.58
2022-12-06T10:15:33.865Z,16.60
2022-12-06T10:18:01.138Z,17.48
2022-12-06T10:20:43.908Z,16.48
2022-12-06T10:23:10.568Z,16.17
2022-12-06T10:25:40.144Z,18.10
2022-12-06T10:28:13.957Z,17.77
2022-12-06T10:30:48.181Z,18.50
2022-12-06T10:33:28.797Z,18.55
2022-12-06T10:36:03.472Z,18.38
2022-12-06T10:38:42.031Z,17.75
2022-12-06T10:41:17.909Z,18.15
2022-12-06T10:43:53.778Z,18.17
2022-12-06T10:46:41.867Z,17.95
2022-12-06T10:49:27.181Z,17.55
2022-12-06T10:51:57.317Z,18.77
2022-12-06T10:54:26.696Z,17.10
2022-12-06T10:56:55.689Z,17.40
2022-12-06T10:59:28.582Z,17.13
2022-12-06T11:01:58.187Z,17.05
2022-12-06T11:04:44.653Z,18.25
2022-12-06T11:07:17.111Z,17.25
2022-12-06T11:09:50.016Z,18.10
2022-12-06T11:12:20.210Z,17.70
2022-12-06T11:14:49.531Z,17.90
2022-12-06T11:17:16.285Z,17.25
2022-12-06T11:19:49.636Z,16.67
2022-12-06T11:22:25.516Z,17.00
2022-12-06T11:24:57.773Z,17.20
2022-12-06T11:27:34.802Z,16.02
2022-12-06T11:30:13.688Z,15.93
2022-12-06T11:32:44.642Z,16.25
2022-12-06T11:35:15.537Z,16.20
2022-12-06T11:37:44.679Z,16.30
2022-12-06T11:40:26.302Z,15.68
2022-12-06T11:42:53.343Z,15.73
2022-12-06T11:45:24.350Z,14.60
2022-12-06T11:47:52.832Z,15.95
2022-12-06T11:50:20.073Z,15.18
2022-12-06T11:52:52.950Z,14.90
2022-12-06T11:55:27.804Z,15.68
2022-12-06T11:58:08.692Z,15.63
2022-12-06T12:00:35.509Z,13.73
2022-12-06T12:03:02.204Z,14.55
2022-12-06T12:05:30.983Z,14.43
2022-12-06T12:08:06.315Z,14.68
2022-12-06T12:10:34.563Z,15.13
2022-12-06T12:13:35.079Z,15.63
2022-12-06T12:16:03.422Z,15.65
2022-12-06T12:18:37.931Z,15.82
2022-12-06T12:21:06.396Z,15.55
2022-12-06T12:23:35.052Z,15.70
2022-12-06T12:26:18.489Z,16.92
2022-12-06T12:28:46.448Z,15.38
2022-12-06T12:31:20.583Z,16.42
2022-12-06T12:33:47.620Z,15.85
2022-12-06T12:36:20.345Z,15.60
2022-12-06T12:38:54.110Z,17.05
2022-12-06T12:41:26.246Z,16.85
2022-12-06T12:44:20.507Z,15.30
2022-12-06T12:46:44.215Z,16.30
2022-12-06T12:49:31.495Z,15.32
2022-12-06T12:51:58.600Z,15.90
2022-12-06T12:54:29.056Z,15.13
2022-12-06T12:56:56.147Z,15.90
2022-12-06T12:59:24.325Z,15.00
2022-12-06T13:01:56.542Z,15.65
2022-12-06T13:04:26.309Z,15.90
2022-12-06T13:06:56.267Z,16.02
2022-12-06T13:09:25.447Z,15.38
2022-12-06T13:11:55.153Z,14.73
2022-12-06T13:14:22.728Z,15.77
2022-12-06T13:16:52.087Z,15.23
2022-12-06T13:19:20.233Z,15.38
2022-12-06T13:21:48.022Z,15.93
2022-12-06T13:24:22.280Z,15.30
2022-12-06T13:26:57.893Z,14.73
2022-12-06T13:29:27.709Z,15.18
2022-12-06T13:31:56.275Z,14.73
2022-12-06T13:34:37.964Z,15.55
2022-12-06T13:37:24.786Z,14.52
2022-12-06T13:39:51.492Z,14.80
2022-12-06T13:42:23.696Z,15.27
2022-12-06T13:44:50.437Z,15.30
2022-12-06T13:47:29.333Z,14.60
2022-12-06T13:49:57.403Z,15.52
2022-12-06T13:52:42.335Z,14.57
2022-12-06T13:55:24.440Z,15.95
2022-12-06T13:57:51.092Z,15.57
2022-12-06T14:00:29.720Z,14.98
2022-12-06T14:02:59.425Z,15.55
2022-12-06T14:05:44.873Z,15.57
2022-12-06T14:08:12.622Z,15.38
2022-12-06T14:10:39.540Z,15.98
2022-12-06T14:13:06.247Z,15.63
2022-12-06T14:15:32.984Z,14.43
2022-12-06T14:18:04.385Z,15.25
2022-12-06T14:20:33.862Z,16.17
2022-12-06T14:23:00.538Z,16.45
2022-12-06T14:25:28.806Z,16.80
2022-12-06T14:28:03.874Z,16.98
2022-12-06T14:30:30.625Z,16.17
2022-12-06T14:32:58.104Z,17.10
2022-12-06T14:35:26.276Z,15.52
2022-12-06T14:37:56.127Z,17.90
2022-12-06T14:40:45.452Z,16.30
2022-12-06T14:43:19.323Z,15.88
2022-12-06T14:45:46.611Z,16.70
2022-12-06T14:48:13.456Z,16.42
2022-12-06T14:50:42.179Z,16.98
2022-12-06T14:53:13.057Z,15.40
2022-12-06T14:55:54.170Z,16.50
2022-12-06T14:58:22.487Z,14.80
2022-12-06T15:00:54.346Z,15.20
2022-12-06T15:03:26.010Z,17.02
2022-12-06T15:06:09.646Z,16.05
2022-12-06T15:08:37.688Z,15.65
2022-12-06T15:11:04.400Z,15.68
2022-12-06T15:13:31.070Z,14.70
2022-12-06T15:16:16.004Z,16.15
2022-12-06T15:18:58.006Z,14.98
2022-12-06T15:21:24.883Z,15.07
2022-12-06T15:23:55.528Z,16.30
2022-12-06T15:26:22.959Z,15.40
2022-12-06T15:28:50.223Z,14.93
2022-12-06T15:31:27.249Z,15.90
2022-12-06T15:33:54.492Z,14.82
2022-12-06T15:36:24.372Z,15.00
2022-12-06T15:38:51.043Z,14.38
2022-12-06T15:41:19.004Z,14.25
2022-12-06T15:43:45.728Z,15.07
2022-12-06T15:46:23.754Z,14.85
2022-12-06T15:48:51.397Z,14.63
2022-12-06T15:51:21.157Z,13.98
2022-12-06T15:53:48.911Z,13.73
2022-12-06T15:56:17.517Z,14.30
2022-12-06T15:58:44.224Z,13.60
2022-12-06T16:01:16.510Z,14.60
2022-12-06T16:03:44.479Z,14.40
2022-12-06T16:06:15.297Z,13.77
2022-12-06T16:08:42.536Z,13.98
2022-12-06T16:11:12.305Z,14.68
2022-12-06T16:13:39.545Z,14.98
2022-12-06T16:16:06.748Z,14.77
2022-12-06T16:18:33.731Z,15.30
2022-12-06T16:21:00.384Z,13.75
2022-12-06T16:26:35.317Z,15.00
2022-12-06T16:29:03.124Z,14.52
2022-12-06T16:31:30.069Z,15.05
2022-12-06T16:33:57.445Z,14.30
2022-12-06T16:36:27.548Z,14.68
2022-12-06T16:38:54.901Z,15.35
2022-12-06T16:41:23.292Z,15.30
2022-12-06T16:43:50.343Z,16.35
2022-12-06T16:46:17.011Z,15.68
2022-12-06T16:48:43.618Z,15.40
2022-12-06T16:51:13.929Z,16.20
2022-12-06T16:53:44.538Z,15.63
2022-12-06T16:56:14.117Z,15.05
2022-12-06T16:58:40.839Z,17.17
2022-12-06T17:01:21.369Z,16.17
2022-12-06T17:03:55.603Z,15.98
2022-12-06T17:06:22.888Z,16.58
2022-12-06T17:08:50.696Z,16.13
2022-12-06T17:11:37.188Z,17.23
2022-12-06T17:14:04.464Z,17.25
2022-12-06T17:16:35.314Z,18.35
2022-12-06T17:19:02.254Z,18.08
2022-12-06T17:21:29.250Z,16.17
2022-12-06T17:23:56.896Z,17.42
2022-12-06T17:26:23.616Z,17.70
2022-12-06T17:28:50.312Z,17.45
2022-12-06T17:31:17.043Z,17.35
2022-12-06T17:33:43.717Z,17.63
2022-12-06T17:36:11.517Z,17.73
2022-12-06T17:38:38.521Z,18.08
2022-12-06T17:41:49.960Z,17.73
2022-12-06T17:44:18.664Z,16.52
2022-12-06T17:46:45.578Z,16.27
2022-12-06T17:49:16.958Z,17.15
2022-12-06T17:51:43.670Z,17.70
2022-12-06T17:54:10.286Z,17.13
2022-12-06T17:56:36.947Z,17.75
2022-12-06T17:59:05.073Z,17.60
2022-12-06T18:01:58.093Z,16.63
2022-12-06T18:04:18.769Z,17.42
2022-12-06T18:06:45.383Z,17.42
2022-12-06T18:09:13.549Z,19.02
2022-12-06T18:11:40.496Z,18.23
2022-12-06T18:14:07.305Z,17.33
2022-12-06T18:16:35.535Z,18.40
2022-12-06T18:19:08.456Z,17.83
2022-12-06T18:21:39.644Z,18.70
2022-12-06T18:24:25.635Z,17.05
2022-12-06T18:26:56.399Z,18.67
2022-12-06T18:29:23.647Z,17.15
2022-12-06T18:31:51.327Z,19.65
2022-12-06T18:34:18.548Z,17.88
2022-12-06T18:36:45.258Z,18.40
2022-12-06T18:39:15.294Z,18.45
2022-12-06T18:41:45.685Z,18.52
2022-12-06T18:44:12.754Z,17.27
2022-12-06T18:46:41.548Z,17.88
2022-12-06T18:49:09.658Z,16.83
2022-12-06T18:51:36.530Z,17.40
2022-12-06T18:54:05.036Z,18.85
2022-12-06T18:56:33.009Z,17.95
2022-12-06T18:59:01.098Z,18.17
2022-12-06T19:01:34.175Z,18.02
2022-12-06T19:04:03.114Z,18.00
2022-12-06T19:06:34.133Z,17.65
2022-12-06T19:09:02.308Z,17.85
2022-12-06T19:11:29.050Z,17.60
2022-12-06T19:13:59.124Z,18.00
2022-12-06T19:16:27.326Z,18.77
2022-12-06T19:18:58.339Z,17.95
2022-12-06T19:21:25.620Z,17.38
2022-12-06T19:23:52.957Z,18.38
2022-12-06T19:26:19.753Z,18.13
2022-12-06T19:28:46.449Z,17.67
2022-12-06T19:31:13.923Z,18.10
2022-12-06T19:33:42.666Z,19.63
2022-12-06T19:36:15.733Z,18.35
2022-12-06T19:38:42.950Z,17.60
2022-12-06T19:41:12.525Z,17.60
2022-12-06T19:43:58.253Z,19.48
2022-12-06T19:46:26.390Z,18.92
2022-12-06T19:48:55.269Z,18.60
2022-12-06T19:51:22.268Z,17.95
2022-12-06T19:53:49.027Z,19.77
2022-12-06T19:56:17.029Z,18.13
2022-12-06T19:58:44.320Z,19.02
2022-12-06T20:01:11.816Z,19.15
2022-12-06T20:03:38.571Z,18.92
2022-12-06T20:06:07.302Z,20.15
2022-12-06T20:08:34.547Z,19.20
2022-12-06T20:11:05.076Z,18.80
2022-12-06T20:13:32.365Z,18.92
2022-12-06T20:16:02.147Z,18.63
2022-12-06T20:18:29.252Z,17.75
2022-12-06T20:20:56.137Z,19.25
2022-12-06T20:23:23.028Z,20.00
2022-12-06T20:25:50.081Z,19.90
2022-12-06T20:28:17.873Z,18.63
2022-12-06T20:30:44.547Z,19.88
2022-12-06T20:33:11.243Z,19.90
2022-12-06T20:35:38.035Z,20.45
2022-12-06T20:38:04.712Z,20.30
2022-12-06T20:40:31.892Z,19.58
2022-12-06T20:42:58.639Z,19.65
2022-12-06T20:45:25.330Z,19.65
2022-12-06T20:47:52.496Z,19.75
2022-12-06T20:50:19.220Z,19.23
2022-12-06T20:52:45.960Z,20.88
2022-12-06T20:55:12.608Z,18.95
2022-12-06T20:57:39.335Z,20.88
2022-12-06T21:00:07.960Z,19.23
2022-12-06T21:02:34.883Z,19.70
2022-12-06T21:05:01.566Z,19.13
2022-12-06T21:07:28.202Z,18.33
2022-12-06T21:09:54.920Z,18.17
2022-12-06T21:12:22.414Z,18.45
2022-12-06T21:14:49.158Z,17.95
2022-12-06T21:17:15.911Z,18.27
2022-12-06T21:19:42.719Z,18.02
2022-12-06T21:22:09.406Z,16.27
2022-12-06T21:24:36.106Z,16.10
2022-12-06T21:27:02.809Z,15.57
2022-12-06T21:29:31.236Z,16.98
2022-12-06T21:32:00.022Z,15.93
2022-12-06T21:34:26.727Z,16.58
2022-12-06T21:36:53.428Z,15.85
2022-12-06T21:39:20.061Z,15.95
2022-12-06T21:41:46.725Z,15.50
2022-12-06T21:44:13.342Z,15.52
2022-12-06T21:46:39.996Z,15.73
2022-12-06T21:49:06.727Z,15.70
2022-12-06T21:51:33.500Z,16.63
2022-12-06T21:54:00.209Z,16.27
2022-12-06T21:56:28.596Z,16.50
2022-12-06T21:58:55.575Z,16.70
2022-12-06T22:01:24.084Z,16.33
2022-12-06T22:03:51.820Z,17.13
2022-12-06T22:06:18.585Z,16.58
2022-12-06T22:08:45.860Z,17.50
2022-12-06T22:11:19.959Z,16.30
2022-12-06T22:13:47.911Z,17.17
2022-12-06T22:16:15.054Z,16.88
2022-12-06T22:18:45.281Z,16.52
2022-12-06T22:21:17.290Z,16.77
2022-12-06T22:23:44.014Z,16.17
2022-12-06T22:26:12.511Z,16.58
2022-12-06T22:28:39.165Z,17.25
2022-12-06T22:31:13.534Z,18.95
2022-12-06T22:33:40.685Z,18.38
2022-12-06T22:36:08.001Z,17.60
2022-12-06T22:38:34.776Z,18.20
2022-12-06T22:41:01.899Z,18.20
2022-12-06T22:43:29.142Z,19.08
2022-12-06T22:45:56.094Z,18.27
2022-12-06T22:48:22.794Z,17.17
2022-12-06T22:50:49.491Z,19.38
2022-12-06T22:53:16.220Z,17.40
2022-12-06T22:55:42.861Z,20.35
2022-12-06T22:58:09.483Z,20.95
2022-12-06T23:00:36.135Z,20.42
2022-12-06T23:03:02.804Z,19.02
2022-12-06T23:05:29.497Z,20.20
2022-12-06T23:07:57.360Z,19.23
2022-12-06T23:10:24.070Z,19.33
2022-12-06T23:12:50.732Z,20.60
2022-12-06T23:15:17.442Z,19.52
2022-12-06T23:17:44.079Z,19.48
2022-12-06T23:20:10.950Z,18.38
2022-12-06T23:22:37.620Z,19.80
2022-12-06T23:25:04.768Z,21.00
2022-12-06T23:27:31.372Z,20.92
2022-12-06T23:29:58.169Z,20.13
2022-12-06T23:32:25.020Z,21.05
2022-12-06T23:34:51.723Z,21.55
2022-12-06T23:37:18.356Z,19.85
2022-12-06T23:39:45.103Z,21.23
2022-12-06T23:42:11.746Z,20.77
2022-12-06T23:44:39.973Z,19.75
2022-12-06T23:47:06.713Z,20.70
2022-12-06T23:49:33.431Z,19.50
2022-12-06T23:52:00.058Z,21.08
2022-12-06T23:54:26.711Z,20.33
2022-12-06T23:56:53.370Z,20.90
2022-12-06T23:59:20.021Z,20.75
